Time;durP1;ratioP1;P1;durP2;ratioP2;P2;SDS_P1;SDS_P2;PMS_P1;PMS_P2;Temp;Humidity;BMP_temperature;BMP_pressure;BME280_temperature;BME280_humidity;BME280_pressure;Samples;Min_cycle;Max_cycle;Signal;HPM_P1;HPM_P2
2022/11/08 00:01:30;;;;;;;15.70;12.57;;;8.30;99.90;;;;;;6203158;23;20452;-82
2022/11/08 00:03:11;;;;;;;20.13;12.60;;;8.30;99.90;;;;;;6225090;23;20223;-83
2022/11/08 00:14:01;;;;;;;11.55;10.20;;;8.20;99.90;;;;;;6221077;23;20169;-85
2022/11/08 00:16:30;;;;;;;17.35;11.57;;;8.20;99.90;;;;;;6220803;23;20176;-82
2022/11/08 00:18:58;;;;;;;11.18;10.02;;;8.10;99.90;;;;;;6220373;23;20480;-82
2022/11/08 00:21:30;;;;;;;13.93;9.93;;;8.10;99.90;;;;;;6196080;23;20172;-82
2022/11/08 00:23:56;;;;;;;15.32;11.10;;;8.20;99.90;;;;;;6224145;23;20184;-82
2022/11/08 00:26:30;;;;;;;12.25;10.13;;;8.30;99.90;;;;;;6225264;23;20206;-83
2022/11/08 00:28:59;;;;;;;16.60;10.18;;;8.30;99.90;;;;;;6224450;23;20483;-84
2022/11/08 00:31:29;;;;;;;13.73;9.93;;;8.10;99.90;;;;;;6224987;23;20253;-80
2022/11/08 00:33:58;;;;;;;11.30;9.20;;;8.30;99.90;;;;;;6225067;23;20332;-81
2022/11/08 00:36:31;;;;;;;10.32;8.43;;;8.20;99.90;;;;;;6225242;23;20210;-83
2022/11/08 00:38:59;;;;;;;11.88;10.23;;;8.30;99.90;;;;;;6198407;23;20206;-81
2022/11/08 00:41:27;;;;;;;10.75;8.77;;;8.40;99.90;;;;;;6225786;23;20212;-80
2022/11/08 00:43:58;;;;;;;10.30;8.27;;;8.30;99.90;;;;;;6223980;23;20176;-83
2022/11/08 00:46:28;;;;;;;11.90;9.38;;;8.30;99.90;;;;;;6224272;23;20376;-82
2022/11/08 00:48:55;;;;;;;15.05;9.73;;;8.40;99.90;;;;;;6224197;23;20215;-82
2022/11/08 00:51:25;;;;;;;12.93;9.93;;;8.30;99.90;;;;;;6224514;23;20207;-82
2022/11/08 00:53:54;;;;;;;10.43;9.40;;;8.40;99.90;;;;;;6224210;23;20188;-82
2022/11/08 00:56:22;;;;;;;13.32;9.02;;;8.40;99.90;;;;;;6225039;23;20180;-82
2022/11/08 00:58:50;;;;;;;13.85;9.13;;;8.30;99.90;;;;;;6224880;23;20184;-85
2022/11/08 01:01:22;;;;;;;12.30;9.45;;;8.50;99.90;;;;;;6224961;23;20236;-84
2022/11/08 01:03:51;;;;;;;11.80;9.57;;;8.40;99.90;;;;;;6225022;23;20196;-84
2022/11/08 01:06:20;;;;;;;12.57;9.70;;;8.40;99.90;;;;;;6198662;23;20395;-83
2022/11/08 01:08:51;;;;;;;12.15;10.48;;;8.50;99.90;;;;;;6199175;23;20191;-82
2022/11/08 01:11:23;;;;;;;17.08;10.43;;;8.30;99.90;;;;;;6225603;23;20216;-83
2022/11/08 01:13:54;;;;;;;11.55;8.68;;;8.40;99.90;;;;;;6226701;23;20207;-84
2022/11/08 01:16:24;;;;;;;12.05;9.20;;;8.10;99.90;;;;;;6199713;23;20251;-87
2022/11/08 01:18:54;;;;;;;12.45;10.30;;;8.10;99.90;;;;;;6225246;23;20188;-84
2022/11/08 01:21:22;;;;;;;13.43;10.60;;;8.10;99.90;;;;;;6231514;23;20202;-81
2022/11/08 01:23:50;;;;;;;11.77;9.20;;;8.10;99.90;;;;;;6230319;23;20176;-84
2022/11/08 01:26:23;;;;;;;12.13;10.40;;;8.00;99.90;;;;;;6197107;23;20184;-81
2022/11/08 01:28:52;;;;;;;12.57;10.30;;;8.10;99.90;;;;;;6223582;23;20251;-80
2022/11/08 01:31:24;;;;;;;20.55;10.48;;;8.00;99.90;;;;;;6222721;23;20266;-81
2022/11/08 01:33:53;;;;;;;16.45;11.32;;;8.10;99.90;;;;;;6199646;23;20199;-84
2022/11/08 01:36:24;;;;;;;18.92;12.85;;;8.00;99.90;;;;;;6208272;23;20175;-87
2022/11/08 01:38:54;;;;;;;17.23;14.60;;;8.10;99.90;;;;;;6242403;23;20164;-85
2022/11/08 01:41:24;;;;;;;20.77;16.08;;;8.20;99.90;;;;;;6211879;23;20230;-83
2022/11/08 01:43:58;;;;;;;21.20;18.90;;;8.20;99.90;;;;;;6199954;23;20214;-83
2022/11/08 01:46:40;;;;;;;19.13;16.50;;;8.00;99.90;;;;;;6197481;23;20184;-82
2022/11/08 01:49:43;;;;;;;18.88;16.48;;;8.00;99.90;;;;;;6197615;23;20190;-82
2022/11/08 01:52:34;;;;;;;14.77;13.35;;;8.00;99.90;;;;;;6224119;23;20207;-83
2022/11/08 01:55:17;;;;;;;17.13;15.30;;;8.10;99.90;;;;;;6222828;23;20168;-81
2022/11/08 01:57:58;;;;;;;25.27;16.50;;;8.10;99.90;;;;;;6197089;23;20518;-82
2022/11/08 02:00:39;;;;;;;21.38;14.82;;;8.20;99.90;;;;;;6222747;23;20184;-82
2022/11/08 02:03:12;;;;;;;17.88;14.30;;;8.10;99.90;;;;;;6224304;23;20230;-82
2022/11/08 02:05:41;;;;;;;16.73;14.60;;;7.90;99.90;;;;;;6198029;23;20165;-84
2022/11/08 02:08:18;;;;;;;17.17;13.02;;;8.00;99.90;;;;;;6223179;23;20176;-85
2022/11/08 02:10:52;;;;;;;16.95;15.15;;;8.00;99.90;;;;;;6195599;23;20264;-82
2022/11/08 02:13:25;;;;;;;16.48;13.70;;;7.90;99.90;;;;;;6221764;23;20302;-82
2022/11/08 02:15:56;;;;;;;18.23;15.18;;;7.90;99.90;;;;;;6197152;23;20160;-83
2022/11/08 02:18:27;;;;;;;17.83;14.23;;;8.10;99.90;;;;;;6196027;23;20211;-83
2022/11/08 02:21:51;;;;;;;16.08;14.23;;;8.20;99.90;;;;;;6220746;23;20184;-82
2022/11/08 02:24:18;;;;;;;23.13;14.05;;;8.30;99.90;;;;;;6222019;23;20472;-83
2022/11/08 02:26:55;;;;;;;16.52;14.82;;;8.20;99.90;;;;;;6221891;23;20165;-82
2022/11/08 02:29:30;;;;;;;17.45;15.70;;;8.00;99.90;;;;;;6195711;23;20184;-82
2022/11/08 02:32:00;;;;;;;18.55;14.32;;;8.10;99.90;;;;;;6195075;23;20206;-84
2022/11/08 02:34:40;;;;;;;17.38;15.48;;;8.10;99.90;;;;;;6222368;23;20219;-84
2022/11/08 02:37:11;;;;;;;17.85;13.48;;;8.00;99.90;;;;;;6222875;23;20188;-83
2022/11/08 02:39:41;;;;;;;16.70;14.15;;;8.10;99.90;;;;;;6223786;23;20193;-82
2022/11/08 02:42:15;;;;;;;16.42;13.10;;;8.20;99.90;;;;;;6224522;23;20309;-82
2022/11/08 02:44:43;;;;;;;16.02;13.60;;;8.10;99.90;;;;;;6230228;23;20187;-81
2022/11/08 02:47:10;;;;;;;21.88;14.95;;;8.00;99.90;;;;;;6217283;23;20168;-83
2022/11/08 02:49:41;;;;;;;17.40;14.02;;;7.80;99.90;;;;;;6242019;23;20184;-82
2022/11/08 02:52:09;;;;;;;14.95;11.50;;;7.90;99.90;;;;;;6213109;23;20203;-86
2022/11/08 02:54:38;;;;;;;13.55;12.15;;;8.00;99.90;;;;;;6233036;23;20176;-82
2022/11/08 02:57:13;;;;;;;17.15;13.20;;;8.10;99.90;;;;;;6223918;23;20184;-84
2022/11/08 02:59:40;;;;;;;20.48;12.20;;;8.10;99.90;;;;;;6223281;23;20168;-83
2022/11/08 03:02:09;;;;;;;14.75;13.05;;;8.00;99.90;;;;;;6222976;23;20192;-83
2022/11/08 03:04:36;;;;;;;17.35;13.43;;;8.10;99.90;;;;;;6195387;23;20239;-81
2022/11/08 03:07:03;;;;;;;16.30;12.65;;;7.90;99.90;;;;;;6221760;23;20176;-81
2022/11/08 03:09:30;;;;;;;11.65;10.52;;;7.90;99.90;;;;;;6222193;23;20184;-82
2022/11/08 03:11:58;;;;;;;15.05;11.43;;;7.90;99.90;;;;;;6171976;23;20259;-84
2022/11/08 03:14:26;;;;;;;13.35;11.15;;;7.70;99.90;;;;;;6197626;23;20172;-87
2022/11/08 03:16:55;;;;;;;19.50;14.20;;;7.60;99.90;;;;;;6229873;23;20188;-82
2022/11/08 03:19:29;;;;;;;16.52;12.98;;;7.50;99.90;;;;;;6209018;23;20191;-89
2022/11/08 03:21:57;;;;;;;18.05;12.73;;;7.50;99.90;;;;;;6240936;23;20200;-84
2022/11/08 03:24:24;;;;;;;19.20;12.63;;;7.60;99.90;;;;;;6210889;23;20432;-82
2022/11/08 03:26:51;;;;;;;16.33;11.65;;;7.60;99.90;;;;;;6228177;23;20226;-81
2022/11/08 03:29:21;;;;;;;14.00;11.32;;;7.80;99.90;;;;;;6227425;23;20190;-82
2022/11/08 03:31:48;;;;;;;16.48;11.43;;;7.90;99.90;;;;;;6226725;23;20231;-82
2022/11/08 03:34:16;;;;;;;11.98;10.55;;;7.80;99.90;;;;;;6200604;23;20176;-81
2022/11/08 03:36:45;;;;;;;13.02;11.00;;;7.70;99.90;;;;;;6174840;23;20219;-82
2022/11/08 03:39:16;;;;;;;14.55;11.43;;;7.70;99.90;;;;;;6222838;23;20548;-82
2022/11/08 03:41:43;;;;;;;23.63;12.90;;;7.60;99.90;;;;;;6195538;23;20403;-82
2022/11/08 03:44:11;;;;;;;14.10;12.10;;;7.40;99.90;;;;;;6221519;23;20230;-83
2022/11/08 03:46:39;;;;;;;17.08;12.45;;;7.60;99.90;;;;;;6221486;23;20261;-86
2022/11/08 03:49:07;;;;;;;15.85;11.05;;;7.30;99.90;;;;;;6195176;23;20212;-82
2022/11/08 03:51:35;;;;;;;13.35;11.15;;;7.20;99.90;;;;;;6221311;23;20298;-81
2022/11/08 03:54:02;;;;;;;18.60;10.48;;;7.30;99.90;;;;;;6221826;23;20180;-84
2022/11/08 03:56:31;;;;;;;16.55;11.50;;;7.30;99.90;;;;;;6220727;23;20231;-82
2022/11/08 03:59:00;;;;;;;14.38;10.90;;;7.20;99.90;;;;;;6221544;23;20184;-84
2022/11/08 04:01:27;;;;;;;13.02;10.50;;;7.40;99.90;;;;;;6221327;23;20417;-83
2022/11/08 04:04:06;;;;;;;17.45;11.30;;;7.40;99.90;;;;;;6220275;23;20247;-84
2022/11/08 04:06:34;;;;;;;14.52;11.75;;;7.40;99.90;;;;;;6220791;23;20235;-82
2022/11/08 04:09:05;;;;;;;15.02;11.48;;;7.40;99.90;;;;;;6194885;23;20188;-83
2022/11/08 04:17:14;;;;;;;14.88;11.27;;;7.10;99.90;;;;;;6220879;23;20189;-82
2022/11/08 04:22:28;;;;;;;14.95;11.95;;;7.10;99.90;;;;;;6221521;23;20165;-84
2022/11/08 04:25:03;;;;;;;12.90;11.60;;;7.00;99.90;;;;;;6220883;23;20184;-82
2022/11/08 04:27:34;;;;;;;14.77;12.10;;;7.00;99.90;;;;;;6194999;23;20218;-82
2022/11/08 04:30:01;;;;;;;13.25;10.32;;;7.10;99.90;;;;;;6218740;23;20230;-85
2022/11/08 04:32:29;;;;;;;12.88;11.25;;;7.10;99.90;;;;;;6221014;23;20243;-84
2022/11/08 04:34:56;;;;;;;13.98;12.13;;;7.10;99.90;;;;;;6221655;23;20200;-82
2022/11/08 04:37:24;;;;;;;14.52;12.05;;;7.20;99.90;;;;;;6195047;23;20230;-82
2022/11/08 04:39:51;;;;;;;15.05;11.18;;;7.10;99.90;;;;;;6220556;23;20212;-84
2022/11/08 04:42:20;;;;;;;18.15;11.85;;;7.20;99.90;;;;;;6220734;23;20304;-81
2022/11/08 04:44:48;;;;;;;11.18;10.05;;;7.20;99.90;;;;;;6221025;23;20416;-81
2022/11/08 04:47:16;;;;;;;14.25;11.88;;;7.30;99.90;;;;;;6219515;23;20168;-82
2022/11/08 04:49:43;;;;;;;16.20;11.68;;;7.30;99.90;;;;;;6219245;23;20222;-82
2022/11/08 04:52:13;;;;;;;15.98;12.40;;;7.30;99.90;;;;;;6220227;23;20231;-84
2022/11/08 04:54:44;;;;;;;12.70;10.80;;;7.20;99.90;;;;;;6219110;23;20240;-81
2022/11/08 04:57:11;;;;;;;12.75;11.00;;;7.20;99.90;;;;;;6217908;23;20173;-82
2022/11/08 04:59:40;;;;;;;12.45;11.25;;;7.20;99.90;;;;;;6217503;23;20180;-83
2022/11/08 05:02:07;;;;;;;13.43;12.02;;;7.20;99.90;;;;;;6220863;23;20184;-84
2022/11/08 05:04:35;;;;;;;17.48;13.48;;;7.10;99.90;;;;;;6222998;23;20184;-82
2022/11/08 05:07:03;;;;;;;14.30;12.30;;;7.20;99.90;;;;;;6225534;23;20164;-88
2022/11/08 05:09:30;;;;;;;17.60;11.50;;;7.10;99.90;;;;;;6241410;23;20183;-80
2022/11/08 05:12:01;;;;;;;19.42;12.07;;;7.00;99.90;;;;;;6243995;23;20219;-81
2022/11/08 05:14:27;;;;;;;12.73;11.15;;;7.10;99.90;;;;;;6179623;23;20367;-81
2022/11/08 05:16:54;;;;;;;15.98;10.95;;;7.10;99.90;;;;;;6227688;23;20180;-81
2022/11/08 05:23:23;;;;;;;14.98;12.30;;;6.90;99.90;;;;;;6227535;23;20187;-82
2022/11/08 05:25:52;;;;;;;15.55;13.55;;;6.90;99.90;;;;;;6225526;23;20175;-81
2022/11/08 05:28:21;;;;;;;13.35;12.15;;;6.90;99.90;;;;;;6226329;23;20176;-80
2022/11/08 05:30:55;;;;;;;17.15;12.65;;;7.10;99.90;;;;;;6201155;23;20168;-81
2022/11/08 05:33:24;;;;;;;13.45;10.93;;;7.10;99.90;;;;;;6227346;23;20190;-80
2022/11/08 05:40:21;;;;;;;16.35;12.75;;;7.00;99.90;;;;;;6227485;23;20277;-80
2022/11/08 05:43:35;;;;;;;17.52;13.10;;;6.90;99.90;;;;;;6200471;23;20165;-80
2022/11/08 05:46:02;;;;;;;14.55;12.43;;;6.90;99.90;;;;;;6227625;23;20207;-81
2022/11/08 05:48:32;;;;;;;20.75;13.80;;;6.90;99.90;;;;;;6227230;23;20452;-80
2022/11/08 05:50:59;;;;;;;16.45;11.40;;;7.00;99.90;;;;;;6227880;23;20234;-81
2022/11/08 05:53:33;;;;;;;13.95;12.40;;;7.20;99.90;;;;;;6222209;23;20196;-80
2022/11/08 05:56:03;;;;;;;16.75;12.60;;;7.20;99.90;;;;;;6228550;23;20507;-81
2022/11/08 05:58:40;;;;;;;18.90;13.23;;;7.20;99.90;;;;;;6203127;23;20176;-80
2022/11/08 06:01:40;;;;;;;17.92;13.60;;;7.30;99.90;;;;;;6230821;23;20199;-81
2022/11/08 06:04:11;;;;;;;23.90;12.98;;;7.30;99.90;;;;;;6227461;23;20160;-82
2022/11/08 06:06:39;;;;;;;20.75;13.63;;;7.40;99.90;;;;;;6228252;23;20240;-81
2022/11/08 06:09:12;;;;;;;17.65;12.90;;;7.30;99.90;;;;;;6228089;23;20188;-80
2022/11/08 06:11:39;;;;;;;16.75;13.20;;;7.10;99.90;;;;;;6228015;23;20188;-81
2022/11/08 06:14:15;;;;;;;17.65;13.95;;;7.10;99.90;;;;;;6227189;23;20457;-86
2022/11/08 06:16:42;;;;;;;14.73;13.15;;;7.20;99.90;;;;;;6227242;23;20161;-80
2022/11/08 06:19:26;;;;;;;15.95;13.57;;;7.30;99.90;;;;;;6226595;23;20161;-80
2022/11/08 06:21:53;;;;;;;16.73;13.95;;;7.30;99.90;;;;;;6226975;23;20176;-81
2022/11/08 06:28:12;;;;;;;22.70;12.82;;;7.20;99.90;;;;;;6224792;23;20179;-84
2022/11/08 06:30:39;;;;;;;17.90;15.30;;;7.20;99.90;;;;;;6222713;23;20184;-84
2022/11/08 06:33:07;;;;;;;21.17;15.68;;;7.20;99.90;;;;;;6195705;23;20230;-82
2022/11/08 06:35:36;;;;;;;25.30;16.30;;;7.20;99.90;;;;;;6222976;23;20207;-84
2022/11/08 06:38:04;;;;;;;24.13;15.25;;;7.30;99.90;;;;;;6221209;23;20176;-86
2022/11/08 06:40:37;;;;;;;22.50;14.65;;;7.60;99.90;;;;;;6171289;23;20171;-85
2022/11/08 06:43:05;;;;;;;18.50;14.45;;;7.60;99.90;;;;;;6219925;23;20176;-83
2022/11/08 06:50:55;;;;;;;25.35;15.27;;;7.70;99.90;;;;;;6171859;23;20188;-81
2022/11/08 06:53:23;;;;;;;24.95;14.32;;;7.70;99.90;;;;;;6195896;23;20510;-83
2022/11/08 06:55:50;;;;;;;21.40;14.77;;;7.70;99.90;;;;;;6169673;23;20353;-86
2022/11/08 06:58:18;;;;;;;20.77;14.57;;;7.80;99.90;;;;;;6209980;23;20176;-90
2022/11/08 07:00:45;;;;;;;18.08;12.75;;;7.90;99.90;;;;;;6210688;23;20228;-86
2022/11/08 07:03:14;;;;;;;17.65;12.60;;;7.80;99.90;;;;;;6209489;23;20227;-90
2022/11/08 07:05:41;;;;;;;12.60;10.30;;;7.90;99.90;;;;;;6209588;23;20351;-83
2022/11/08 07:08:08;;;;;;;13.32;11.80;;;7.90;99.90;;;;;;6197193;23;20189;-82
2022/11/08 07:10:36;;;;;;;15.77;11.25;;;8.00;99.90;;;;;;6195369;23;20231;-82
2022/11/08 07:13:08;;;;;;;13.32;10.45;;;8.10;99.90;;;;;;6173191;23;20197;-82
2022/11/08 07:15:36;;;;;;;12.18;10.05;;;8.20;99.90;;;;;;6195847;23;20162;-82
2022/11/08 07:18:09;;;;;;;10.05;9.05;;;8.40;99.90;;;;;;6169183;23;20177;-80
2022/11/08 07:20:37;;;;;;;12.18;7.65;;;8.80;99.90;;;;;;6194684;23;20169;-82
2022/11/08 07:23:04;;;;;;;8.07;6.60;;;9.40;99.90;;;;;;6168925;23;20181;-83
2022/11/08 07:25:33;;;;;;;12.00;6.53;;;10.20;99.90;;;;;;6195798;23;20177;-83
2022/11/08 07:28:03;;;;;;;6.53;5.85;;;11.20;99.90;;;;;;6195369;23;20177;-82
2022/11/08 07:30:31;;;;;;;13.40;6.18;;;12.10;99.90;;;;;;6194863;23;20181;-84
2022/11/08 07:32:58;;;;;;;11.23;5.43;;;12.80;99.90;;;;;;6194098;23;20185;-82
2022/11/08 07:35:29;;;;;;;6.65;5.90;;;13.10;99.90;;;;;;6194200;23;20177;-82
2022/11/08 07:37:56;;;;;;;8.15;7.35;;;13.50;99.90;;;;;;6194283;23;20165;-81
2022/11/08 07:40:23;;;;;;;6.13;5.53;;;14.30;99.90;;;;;;6193788;23;20539;-86
2022/11/08 07:42:51;;;;;;;6.73;6.03;;;15.10;99.90;;;;;;6194050;23;20387;-84
2022/11/08 07:45:38;;;;;;;10.00;5.60;;;15.20;99.90;;;;;;6153574;23;20402;-81
2022/11/08 07:48:07;;;;;;;8.63;6.00;;;15.40;99.90;;;;;;6194554;23;20366;-83
2022/11/08 07:50:40;;;;;;;12.33;6.97;;;14.90;99.90;;;;;;6194530;23;20407;-80
2022/11/08 07:53:08;;;;;;;11.57;6.93;;;14.50;99.90;;;;;;6194088;23;20682;-80
2022/11/08 07:55:36;;;;;;;11.27;7.97;;;13.90;99.90;;;;;;6168826;23;20446;-81
2022/11/08 07:58:04;;;;;;;16.50;7.70;;;13.30;99.90;;;;;;6204407;23;20406;-89
2022/11/08 08:00:35;;;;;;;12.90;6.70;;;12.90;99.90;;;;;;6183737;23;20409;-88
2022/11/08 08:03:04;;;;;;;10.10;6.75;;;12.50;99.90;;;;;;6210558;23;20157;-86
2022/11/08 08:05:37;;;;;;;8.13;6.25;;;12.20;99.90;;;;;;6198053;23;20243;-83
2022/11/08 08:08:05;;;;;;;7.50;6.28;;;12.20;99.90;;;;;;6168531;23;20177;-83
2022/11/08 08:10:33;;;;;;;5.78;5.00;;;12.10;99.90;;;;;;6168114;23;20185;-81
2022/11/08 08:13:00;;;;;;;9.98;5.43;;;11.90;99.90;;;;;;6194512;23;20240;-85
2022/11/08 08:15:27;;;;;;;6.03;4.97;;;11.90;99.90;;;;;;6167190;23;20180;-81
2022/11/08 08:17:54;;;;;;;13.77;10.35;;;11.90;99.90;;;;;;6167325;23;20222;-82
2022/11/08 08:20:22;;;;;;;7.05;5.30;;;12.40;99.90;;;;;;6167962;23;20218;-83
2022/11/08 08:22:51;;;;;;;11.05;5.65;;;13.20;99.90;;;;;;6193902;23;20165;-82
2022/11/08 08:25:19;;;;;;;6.07;4.82;;;13.90;99.90;;;;;;6168172;23;20177;-85
2022/11/08 08:27:51;;;;;;;7.63;6.40;;;14.70;99.90;;;;;;6193811;23;20495;-80
2022/11/08 08:30:19;;;;;;;6.13;4.23;;;15.20;99.90;;;;;;6194048;23;20426;-82
2022/11/08 08:32:47;;;;;;;8.20;5.37;;;15.70;99.90;;;;;;6168025;23;20821;-79
2022/11/08 08:35:28;;;;;;;3.77;3.37;;;15.70;99.90;;;;;;6193356;23;20375;-81
2022/11/08 08:37:59;;;;;;;4.43;4.03;;;15.90;99.90;;;;;;6167872;23;20391;-81
2022/11/08 08:40:27;;;;;;;10.30;3.50;;;15.70;99.90;;;;;;6193370;23;20382;-81
2022/11/08 08:42:57;;;;;;;7.70;5.10;;;15.70;99.90;;;;;;6194671;23;20527;-82
2022/11/08 08:45:25;;;;;;;9.47;4.50;;;15.50;99.90;;;;;;6169121;23;20417;-82
2022/11/08 08:47:54;;;;;;;6.87;4.63;;;15.50;99.90;;;;;;6195906;23;20395;-82
2022/11/08 08:50:23;;;;;;;4.90;4.20;;;15.40;99.90;;;;;;6169308;23;20410;-81
2022/11/08 08:52:50;;;;;;;5.33;4.10;;;15.30;99.90;;;;;;6195715;23;20427;-83
2022/11/08 08:55:17;;;;;;;4.20;3.73;;;15.30;99.90;;;;;;6169976;23;20694;-81
2022/11/08 08:57:47;;;;;;;5.67;3.23;;;15.20;99.90;;;;;;6195916;23;20387;-84
2022/11/08 09:00:15;;;;;;;4.17;3.70;;;15.20;99.90;;;;;;6195029;23;20391;-82
2022/11/08 09:03:07;;;;;;;3.87;3.47;;;14.80;99.90;;;;;;6194862;23;20738;-81
2022/11/08 09:05:34;;;;;;;4.40;3.75;;;14.50;99.90;;;;;;6196596;23;20457;-81
2022/11/08 09:08:02;;;;;;;6.43;3.60;;;14.50;99.90;;;;;;6204000;23;20220;-88
2022/11/08 09:10:29;;;;;;;4.05;3.65;;;14.30;99.90;;;;;;6179036;23;20567;-81
2022/11/08 09:12:56;;;;;;;3.90;3.30;;;14.20;99.90;;;;;;6169372;23;20248;-80
2022/11/08 09:15:24;;;;;;;4.82;3.58;;;14.20;99.90;;;;;;6195130;23;20391;-80
2022/11/08 09:17:53;;;;;;;7.85;4.03;;;14.40;99.90;;;;;;6169894;23;20164;-82
2022/11/08 09:20:20;;;;;;;4.47;4.05;;;14.40;99.90;;;;;;6195392;23;20183;-81
2022/11/08 09:22:48;;;;;;;4.97;3.13;;;14.40;99.90;;;;;;6196151;23;20329;-82
2022/11/08 09:25:14;;;;;;;7.10;3.97;;;14.60;99.90;;;;;;6169565;23;20181;-83
2022/11/08 09:27:42;;;;;;;6.17;4.90;;;14.60;99.90;;;;;;6169878;23;20574;-82
2022/11/08 09:30:09;;;;;;;9.03;3.13;;;14.80;99.90;;;;;;6195802;23;20500;-83
2022/11/08 09:32:36;;;;;;;4.38;3.95;;;14.90;99.90;;;;;;6195582;23;20422;-83
2022/11/08 09:35:23;;;;;;;6.68;3.38;;;14.80;99.90;;;;;;6195159;23;20184;-81
2022/11/08 09:37:54;;;;;;;6.20;3.90;;;15.00;99.90;;;;;;6195232;23;20177;-84
2022/11/08 09:40:36;;;;;;;4.30;3.90;;;15.30;99.90;;;;;;6194736;23;20441;-82
2022/11/08 09:43:25;;;;;;;3.70;3.30;;;15.10;99.90;;;;;;6195551;23;20353;-83
2022/11/08 09:45:54;;;;;;;8.40;3.27;;;15.40;99.90;;;;;;6196121;23;20811;-81
2022/11/08 09:48:27;;;;;;;11.00;3.70;;;15.50;99.90;;;;;;6189717;23;20437;-83
2022/11/08 09:50:58;;;;;;;4.40;3.00;;;15.50;99.90;;;;;;6169611;23;20402;-80
2022/11/08 09:53:43;;;;;;;4.82;3.60;;;15.40;99.90;;;;;;6195250;23;20438;-83
2022/11/08 09:56:26;;;;;;;7.53;4.43;;;15.10;99.90;;;;;;6194532;23;20232;-81
2022/11/08 09:59:01;;;;;;;6.20;4.00;;;15.00;99.90;;;;;;6195683;23;20371;-83
2022/11/08 10:01:31;;;;;;;7.30;4.57;;;14.80;99.90;;;;;;6195862;23;20355;-80
2022/11/08 10:04:04;;;;;;;5.03;3.23;;;14.70;99.90;;;;;;6195501;23;20391;-82
2022/11/08 10:07:09;;;;;;;4.67;4.13;;;14.50;99.90;;;;;;6195504;23;20383;-83
2022/11/08 10:09:58;;;;;;;4.87;4.40;;;14.50;99.90;;;;;;6169547;23;20402;-83
2022/11/08 10:12:54;;;;;;;2.47;2.28;;;14.50;99.90;;;;;;6195372;23;20383;-81
2022/11/08 10:16:03;;;;;;;3.27;2.93;;;14.60;99.90;;;;;;6194988;23;20165;-81
2022/11/08 10:18:56;;;;;;;4.83;3.23;;;14.90;99.90;;;;;;6195130;23;20391;-83
2022/11/08 10:21:45;;;;;;;4.23;2.57;;;14.80;99.90;;;;;;6195181;23;20710;-82
2022/11/08 10:24:34;;;;;;;5.97;2.70;;;14.90;99.90;;;;;;6168766;23;20453;-83
2022/11/08 10:27:03;;;;;;;5.17;3.70;;;15.10;99.90;;;;;;6194411;23;20391;-84
2022/11/08 10:29:40;;;;;;;5.70;3.33;;;15.10;99.90;;;;;;6192837;23;20458;-83
2022/11/08 10:32:07;;;;;;;4.20;2.83;;;15.00;99.90;;;;;;6164730;23;20382;-83
2022/11/08 10:34:42;;;;;;;6.03;3.20;;;14.90;99.90;;;;;;6190849;23;20401;-82
2022/11/08 10:37:12;;;;;;;10.63;2.83;;;14.90;99.90;;;;;;6164611;23;20390;-84
2022/11/08 10:39:50;;;;;;;3.33;2.63;;;14.90;99.90;;;;;;6190850;23;20479;-82
2022/11/08 10:42:52;;;;;;;2.57;2.30;;;14.90;99.90;;;;;;6191236;23;20407;-82
2022/11/08 10:45:18;;;;;;;4.43;2.40;;;15.00;99.90;;;;;;6172404;23;20377;-84
2022/11/08 10:47:46;;;;;;;7.33;3.17;;;15.10;99.90;;;;;;6191180;23;20441;-84
2022/11/08 10:50:19;;;;;;;4.80;2.80;;;15.30;99.90;;;;;;6163742;23;20761;-85
2022/11/08 10:52:52;;;;;;;3.80;2.40;;;15.20;99.90;;;;;;6191381;23;21056;-86
2022/11/08 10:55:32;;;;;;;3.53;2.73;;;15.20;99.90;;;;;;6190966;23;20486;-82
2022/11/08 10:58:02;;;;;;;3.00;2.73;;;15.20;99.90;;;;;;6192170;23;20383;-83
2022/11/08 11:00:31;;;;;;;5.77;2.60;;;15.20;99.90;;;;;;6192897;23;20391;-85
2022/11/08 11:03:01;;;;;;;3.00;2.37;;;15.30;99.90;;;;;;6193267;23;20625;-83
2022/11/08 11:05:41;;;;;;;3.77;3.10;;;15.40;99.90;;;;;;6192638;23;20572;-86
2022/11/08 11:08:07;;;;;;;5.43;2.60;;;15.30;99.90;;;;;;6192437;23;20373;-84
2022/11/08 11:10:39;;;;;;;6.00;2.17;;;15.30;99.90;;;;;;6194271;23;20442;-85
2022/11/08 11:13:26;;;;;;;3.63;2.37;;;15.40;99.90;;;;;;6165904;23;20439;-83
2022/11/08 11:16:03;;;;;;;4.63;2.80;;;15.50;99.90;;;;;;6167259;23;20402;-88
2022/11/08 11:18:36;;;;;;;6.93;2.10;;;15.30;99.90;;;;;;6191006;23;20418;-82
2022/11/08 11:21:12;;;;;;;2.70;2.50;;;15.40;99.90;;;;;;6190040;23;20426;-85
2022/11/08 11:23:41;;;;;;;3.20;2.70;;;15.60;99.90;;;;;;6191315;23;20414;-84
2022/11/08 11:26:42;;;;;;;4.10;2.60;;;15.70;99.90;;;;;;6166002;23;20626;-84
2022/11/08 11:29:38;;;;;;;6.83;2.67;;;15.80;99.90;;;;;;6164934;23;20668;-84
2022/11/08 11:32:32;;;;;;;3.37;2.63;;;15.70;99.90;;;;;;6191617;23;20461;-84
2022/11/08 11:35:06;;;;;;;3.30;2.03;;;15.80;99.90;;;;;;6182328;23;20478;-86
2022/11/08 11:37:42;;;;;;;4.17;1.67;;;15.70;99.90;;;;;;6183330;23;20391;-88
2022/11/08 11:40:34;;;;;;;4.70;2.53;;;15.60;99.90;;;;;;6210199;23;20353;-84
2022/11/08 11:43:26;;;;;;;6.20;3.07;;;15.70;99.90;;;;;;6210467;23;20379;-85
2022/11/08 11:46:27;;;;;;;5.33;2.80;;;15.90;99.90;;;;;;6211016;23;20363;-87
2022/11/08 11:49:03;;;;;;;3.10;1.90;;;16.00;99.90;;;;;;6180361;23;20375;-82
2022/11/08 11:51:30;;;;;;;3.60;2.73;;;16.00;99.90;;;;;;6193374;23;20379;-84
2022/11/08 11:53:58;;;;;;;3.73;2.37;;;15.90;99.90;;;;;;6193119;23;20462;-85
2022/11/08 11:56:54;;;;;;;3.13;1.83;;;15.80;99.90;;;;;;6194267;23;20399;-86
2022/11/08 11:59:33;;;;;;;2.43;1.73;;;16.00;99.90;;;;;;6167828;23;20415;-87
2022/11/08 12:02:33;;;;;;;3.73;1.90;;;15.90;99.90;;;;;;6203731;23;20379;-88
2022/11/08 12:05:18;;;;;;;3.03;1.90;;;15.90;99.90;;;;;;6210634;23;20410;-84
2022/11/08 12:08:04;;;;;;;2.50;1.90;;;16.00;99.90;;;;;;6207681;23;20383;-83
2022/11/08 12:10:50;;;;;;;1.93;1.77;;;16.00;99.90;;;;;;6195247;23;20542;-86
2022/11/08 12:13:42;;;;;;;2.50;1.80;;;15.80;99.90;;;;;;6166921;23;20452;-85
2022/11/08 12:16:21;;;;;;;6.07;2.30;;;15.80;99.90;;;;;;6175554;23;20425;-83
2022/11/08 12:19:00;;;;;;;2.40;2.20;;;15.70;99.90;;;;;;6167560;23;20988;-84
2022/11/08 12:21:42;;;;;;;6.13;2.53;;;15.80;99.90;;;;;;6169394;23;20383;-84
2022/11/08 12:24:35;;;;;;;2.70;1.90;;;15.80;99.90;;;;;;6198128;23;20379;-85
2022/11/08 12:27:18;;;;;;;4.43;2.40;;;16.00;99.90;;;;;;6169672;23;20387;-84
2022/11/08 12:30:10;;;;;;;4.73;2.43;;;15.90;99.90;;;;;;6196287;23;20534;-84
2022/11/08 12:33:02;;;;;;;3.30;1.70;;;15.90;99.90;;;;;;6196337;23;20442;-83
2022/11/08 12:35:47;;;;;;;5.97;2.37;;;16.00;99.90;;;;;;6196921;23;20446;-86
2022/11/08 12:38:53;;;;;;;3.17;2.27;;;15.90;99.90;;;;;;6169459;23;20373;-83
2022/11/08 12:41:29;;;;;;;3.80;2.60;;;15.70;99.90;;;;;;6191551;23;20465;-86
2022/11/08 12:44:10;;;;;;;4.80;2.00;;;15.60;99.90;;;;;;6195226;23;20342;-85
2022/11/08 12:46:49;;;;;;;4.60;2.10;;;15.90;99.90;;;;;;6196020;23;20350;-87
2022/11/08 12:49:53;;;;;;;4.40;1.90;;;15.70;99.90;;;;;;6194429;23;20422;-83
2022/11/08 12:52:40;;;;;;;2.77;2.03;;;15.70;99.90;;;;;;6167290;23;20922;-84
2022/11/08 12:55:21;;;;;;;2.70;1.83;;;15.70;99.90;;;;;;6167073;23;20422;-84
2022/11/08 12:57:52;;;;;;;8.33;2.33;;;15.50;99.90;;;;;;6167484;23;20712;-81
2022/11/08 13:00:19;;;;;;;3.63;2.63;;;15.50;99.90;;;;;;6166380;23;20403;-85
2022/11/08 13:02:59;;;;;;;2.70;1.83;;;15.50;99.90;;;;;;6192841;23;20440;-87
2022/11/08 13:05:45;;;;;;;4.40;1.80;;;15.40;99.90;;;;;;6191627;23;20466;-84
2022/11/08 13:08:26;;;;;;;2.50;2.30;;;15.50;99.90;;;;;;6166772;23;20390;-84
2022/11/08 13:11:07;;;;;;;2.80;2.03;;;15.50;99.90;;;;;;6193518;23;20449;-85
2022/11/08 13:13:53;;;;;;;8.23;2.00;;;15.70;99.90;;;;;;6194345;23;21014;-83
2022/11/08 13:16:22;;;;;;;3.43;2.13;;;15.60;99.90;;;;;;6168654;23;20399;-86
2022/11/08 13:18:51;;;;;;;3.83;3.30;;;15.50;99.90;;;;;;6168998;23;20390;-84
2022/11/08 13:21:39;;;;;;;4.13;2.43;;;15.50;99.90;;;;;;6193624;23;20514;-82
2022/11/08 13:24:06;;;;;;;2.40;2.00;;;15.50;99.90;;;;;;6193267;23;20590;-84
2022/11/08 13:27:21;;;;;;;5.70;3.10;;;15.60;99.90;;;;;;6191701;23;20543;-82
2022/11/08 13:29:50;;;;;;;2.37;2.13;;;15.40;99.90;;;;;;6165118;23;20409;-83
2022/11/08 13:32:29;;;;;;;2.27;1.97;;;15.40;99.90;;;;;;6165952;23;20419;-83
2022/11/08 13:35:07;;;;;;;9.10;2.50;;;15.40;99.90;;;;;;6191654;23;20441;-84
2022/11/08 13:37:53;;;;;;;6.63;2.60;;;15.50;99.90;;;;;;6193436;23;20380;-85
2022/11/08 13:40:43;;;;;;;4.40;2.00;;;15.40;99.90;;;;;;6192565;23;20434;-85
2022/11/08 13:43:27;;;;;;;3.20;2.33;;;15.30;99.90;;;;;;6167382;23;20368;-87
2022/11/08 13:46:16;;;;;;;2.57;1.93;;;15.50;99.90;;;;;;6192311;23;20379;-80
2022/11/08 13:49:02;;;;;;;3.73;1.67;;;15.60;99.90;;;;;;6192092;23;20734;-81